Terminal Aerodrome Forecast
Issued by NWS

Current Version | Previous Version | Graphics & Text | Print | Product List | Glossary On
Versions: 1 2 3 4 5 6 7 8 9 10 11 12 13 14 15 16 17 18 19 20 21 22 23 24 25 26 27 28
000
FTUS41 KRNK 081629 AAA
TAFLWB
TAF AMD
KLWB 081629Z 0816/0912 00000KT P6SM -RASN OVC035
     FM081800 16005KT 4SM -RASN BR OVC025
      TEMPO 0818/0820 1SM -SN BR OVC018
     FM082000 26006KT 6SM -SHSN OVC020
     FM090300 27009G17KT 3SM -SHSN SCT007 OVC012=

USA.gov is the U.S. government's official web portal to all federal, state and local government web resources and services.